createdAt,value
2018-10-02T00:01:03.380Z,78484.54
2018-10-02T00:03:33.320Z,78491.55
2018-10-02T00:06:03.985Z,78501.56
2018-10-02T00:08:33.465Z,78499.55
2018-10-02T00:11:07.171Z,78501.56
2018-10-02T00:13:40.822Z,78526.59
2018-10-02T00:16:10.188Z,78514.58
2018-10-02T00:18:40.037Z,78521.59
2018-10-02T00:21:10.693Z,78528.59
2018-10-02T00:23:39.009Z,78534.60
2018-10-02T00:26:07.548Z,78537.61
2018-10-02T00:28:37.032Z,78540.61
2018-10-02T00:31:07.465Z,78546.62
2018-10-02T00:33:36.760Z,78561.64
2018-10-02T00:36:07.169Z,78543.61
2018-10-02T00:38:37.116Z,78546.62
2018-10-02T00:41:06.080Z,78561.64
2018-10-02T00:43:34.568Z,78558.63
2018-10-02T00:46:03.956Z,78562.64
2018-10-02T00:48:33.392Z,78561.64
2018-10-02T00:51:02.894Z,78558.63
2018-10-02T00:53:31.793Z,78563.64
2018-10-02T00:56:00.777Z,78560.64
2018-10-02T00:58:29.101Z,78571.65
2018-10-02T01:00:57.429Z,78568.64
2018-10-02T01:03:25.737Z,78578.66
2018-10-02T01:05:54.055Z,78582.66
2018-10-02T01:08:22.372Z,78586.67
2018-10-02T01:13:54.156Z,78601.69
2018-10-02T01:16:23.491Z,78612.70
2018-10-02T01:18:51.815Z,78605.70
2018-10-02T01:21:20.125Z,78600.69
2018-10-02T01:23:48.448Z,78616.70
2018-10-02T01:26:16.764Z,78619.71
2018-10-02T01:28:45.096Z,78614.70
2018-10-02T01:31:14.309Z,78621.72
2018-10-02T01:33:42.670Z,78606.70
2018-10-02T01:36:11.894Z,78619.71
2018-10-02T01:38:40.260Z,78624.72
2018-10-02T01:41:10.440Z,78623.72
2018-10-02T01:43:39.949Z,78633.73
2018-10-02T01:46:09.012Z,78642.74
2018-10-02T01:48:39.685Z,78640.73
2018-10-02T01:51:09.080Z,78637.73
2018-10-02T01:53:39.236Z,78627.72
2018-10-02T01:56:10.052Z,78646.75
2018-10-02T01:58:39.405Z,78643.74
2018-10-02T02:01:10.024Z,78651.76
2018-10-02T02:03:39.592Z,78661.77
2018-10-02T02:06:09.039Z,78654.77
2018-10-02T02:08:38.824Z,78654.77
2018-10-02T02:11:09.125Z,78665.77
2018-10-02T02:13:38.924Z,78664.77
2018-10-02T02:16:09.196Z,78672.78
2018-10-02T02:18:38.473Z,78672.78
2018-10-02T02:21:08.682Z,78683.80
2018-10-02T02:23:39.496Z,78693.81
2018-10-02T02:26:08.389Z,78688.80
2018-10-02T02:28:38.769Z,78697.81
2018-10-02T02:31:08.765Z,78687.80
2018-10-02T02:33:38.292Z,78704.83
2018-10-02T02:36:08.931Z,78718.84
2018-10-02T02:38:38.849Z,78710.83
2018-10-02T02:41:08.764Z,78709.83
2018-10-02T02:43:37.840Z,78715.84
2018-10-02T02:46:08.289Z,78705.83
2018-10-02T02:48:41.832Z,78723.85
2018-10-02T02:51:15.655Z,78723.85
2018-10-02T02:53:44.376Z,78719.84
2018-10-02T02:56:13.617Z,78730.86
2018-10-02T02:58:41.941Z,78730.86
2018-10-02T03:01:11.149Z,78734.86
2018-10-02T03:03:39.496Z,78736.87
2018-10-02T03:06:10.347Z,78722.84
2018-10-02T03:08:39.668Z,78718.84
2018-10-02T03:11:08.869Z,78723.85
2018-10-02T03:13:39.341Z,78722.84
2018-10-02T03:16:08.804Z,78722.84
2018-10-02T03:18:38.828Z,78718.84
2018-10-02T03:21:08.228Z,78726.86
2018-10-02T03:23:38.213Z,78730.86
2018-10-02T03:26:07.776Z,78731.86
2018-10-02T03:28:38.236Z,78746.88
2018-10-02T03:31:08.477Z,78742.88
2018-10-02T03:33:37.932Z,78748.89
2018-10-02T03:36:06.912Z,78744.88
2018-10-02T03:38:36.946Z,78754.89
2018-10-02T03:41:07.732Z,78749.89
2018-10-02T03:43:37.009Z,78745.88
2018-10-02T03:46:07.312Z,78756.90
2018-10-02T03:48:37.483Z,78743.88
2018-10-02T03:51:06.816Z,78740.88
2018-10-02T03:53:36.132Z,78744.88
2018-10-02T03:56:04.460Z,78736.87
2018-10-02T03:58:33.801Z,78744.88
2018-10-02T04:01:03.181Z,78725.85
2018-10-02T04:03:31.903Z,78737.87
2018-10-02T04:06:00.849Z,78736.87
2018-10-02T04:08:29.207Z,78732.86
2018-10-02T04:10:57.594Z,78742.88
2018-10-02T04:13:25.916Z,78745.88
2018-10-02T04:15:54.313Z,78738.88
2018-10-02T04:18:22.650Z,78739.88
2018-10-02T04:20:51.047Z,78742.88
2018-10-02T04:23:19.348Z,78731.86
2018-10-02T04:25:47.721Z,78745.88
2018-10-02T04:28:16.117Z,78744.88
2018-10-02T04:30:44.496Z,78750.89
2018-10-02T04:33:13.804Z,78749.89
2018-10-02T04:35:42.131Z,78756.90
2018-10-02T04:38:10.457Z,78761.91
2018-10-02T04:40:38.777Z,78766.91
2018-10-02T04:43:07.964Z,78781.93
2018-10-02T04:45:37.680Z,78777.92
2018-10-02T04:48:06.935Z,78786.94
2018-10-02T04:50:36.890Z,78776.92
2018-10-02T04:53:07.428Z,78779.93
2018-10-02T04:55:36.840Z,78775.92
2018-10-02T04:58:06.846Z,78784.94
2018-10-02T05:00:36.781Z,78787.94
2018-10-02T05:03:07.136Z,78786.94
2018-10-02T05:05:36.280Z,78792.95
2018-10-02T05:08:04.864Z,78787.94
2018-10-02T05:10:33.690Z,78795.95
2018-10-02T05:13:02.476Z,78782.94
2018-10-02T05:15:31.823Z,78790.94
2018-10-02T05:18:00.137Z,78791.95
2018-10-02T05:20:28.537Z,78781.93
2018-10-02T05:22:57.054Z,78795.95
2018-10-02T05:25:25.415Z,78798.95
2018-10-02T05:27:53.763Z,78782.94
2018-10-02T05:30:22.189Z,78794.95
2018-10-02T05:32:50.606Z,78788.94
2018-10-02T05:35:19.127Z,78797.95
2018-10-02T05:37:47.456Z,78789.94
2018-10-02T05:40:15.834Z,78783.94
2018-10-02T05:42:44.310Z,78775.92
2018-10-02T05:45:12.666Z,78784.94
2018-10-02T05:47:41.004Z,78780.93
2018-10-02T05:50:09.855Z,78780.93
2018-10-02T05:52:38.890Z,78775.92
2018-10-02T05:55:07.674Z,78750.89
2018-10-02T05:57:37.201Z,78761.91
2018-10-02T06:00:06.200Z,78749.89
2018-10-02T06:02:34.559Z,78747.89
2018-10-02T06:05:03.889Z,78750.89
2018-10-02T06:07:32.987Z,78737.87
2018-10-02T06:10:02.050Z,78743.88
2018-10-02T06:12:30.986Z,78730.86
2018-10-02T06:14:59.365Z,78726.86
2018-10-02T06:17:27.837Z,78723.85
2018-10-02T06:19:56.175Z,78718.84
2018-10-02T06:22:24.689Z,78705.83
2018-10-02T06:24:53.029Z,78702.83
2018-10-02T06:27:22.335Z,78706.83
2018-10-02T06:29:50.755Z,78696.81
2018-10-02T06:32:19.088Z,78696.81
2018-10-02T06:34:47.440Z,78683.80
2018-10-02T06:37:15.792Z,78682.80
2018-10-02T06:39:44.166Z,78666.78
2018-10-02T06:42:12.490Z,78658.77
2018-10-02T06:44:40.872Z,78642.74
2018-10-02T06:47:09.203Z,78641.74
2018-10-02T06:49:39.009Z,78622.72
2018-10-02T06:52:08.463Z,78617.71
2018-10-02T06:54:37.272Z,78596.69
2018-10-02T06:57:07.269Z,78588.67
2018-10-02T06:59:36.245Z,78586.67
2018-10-02T07:02:04.593Z,78567.64
2018-10-02T07:04:33.865Z,78556.63
2018-10-02T07:07:02.892Z,78540.61
2018-10-02T07:09:32.601Z,78515.58
2018-10-02T07:12:02.117Z,78508.56
2018-10-02T07:14:31.041Z,78484.54
2018-10-02T07:16:59.377Z,78466.52
2018-10-02T07:19:27.709Z,78447.48
2018-10-02T07:21:56.033Z,78426.46
2018-10-02T07:24:24.357Z,78403.44
2018-10-02T07:26:52.814Z,78372.39
2018-10-02T07:29:21.062Z,78321.33
2018-10-02T07:31:49.400Z,78268.27
2018-10-02T07:34:17.730Z,78228.22
2018-10-02T07:36:46.057Z,78196.18
2018-10-02T07:39:14.385Z,78163.14
2018-10-02T07:41:43.064Z,78140.11
2018-10-02T07:44:11.349Z,78161.14
2018-10-02T07:46:39.682Z,78168.15
2018-10-02T07:49:08.986Z,78193.17
2018-10-02T07:51:38.365Z,78223.21
2018-10-02T07:54:07.753Z,78225.22
2018-10-02T07:56:37.718Z,78239.23
2018-10-02T07:59:06.865Z,78226.22
2018-10-02T08:01:35.202Z,78228.22
2018-10-02T08:04:04.356Z,78216.20
2018-10-02T08:06:33.598Z,78174.16
2018-10-02T08:09:02.975Z,78152.13
2018-10-02T08:11:32.721Z,78156.13
2018-10-02T08:14:02.266Z,78150.13
2018-10-02T08:16:31.034Z,78137.11
2018-10-02T08:18:59.377Z,78124.09
2018-10-02T08:21:27.727Z,78139.11
2018-10-02T08:23:56.104Z,78143.12
2018-10-02T08:26:24.491Z,78161.14
2018-10-02T08:28:52.822Z,78147.13
2018-10-02T08:31:21.174Z,78107.08
2018-10-02T08:33:49.500Z,78059.02
2018-10-02T08:36:17.858Z,78020.98
2018-10-02T08:38:46.228Z,77994.95
2018-10-02T08:41:14.572Z,77973.92
2018-10-02T08:43:43.062Z,77977.93
2018-10-02T08:46:11.298Z,77968.92
2018-10-02T08:48:39.634Z,77978.93
2018-10-02T08:51:08.969Z,77963.91
2018-10-02T08:53:38.684Z,77967.92
2018-10-02T08:56:07.847Z,77951.89
2018-10-02T08:58:36.934Z,77934.88
2018-10-02T09:01:05.345Z,77918.86
2018-10-02T09:03:34.685Z,77913.86
2018-10-02T09:06:03.954Z,77901.84
2018-10-02T09:08:33.026Z,77907.84
2018-10-02T09:11:03.297Z,77927.88
2018-10-02T09:13:33.457Z,77897.84
2018-10-02T09:16:03.607Z,77903.84
2018-10-02T09:18:34.486Z,77907.84
2018-10-02T09:21:03.817Z,77895.84
2018-10-02T09:23:34.497Z,77897.84
2018-10-02T09:26:03.729Z,77909.85
2018-10-02T09:28:34.194Z,77891.83
2018-10-02T09:31:08.480Z,77890.83
2018-10-02T09:33:44.551Z,77853.79
2018-10-02T09:36:19.053Z,77815.75
2018-10-02T09:38:53.716Z,77820.75
2018-10-02T09:42:25.786Z,77823.75
2018-10-02T09:44:54.945Z,77827.77
2018-10-02T09:47:23.290Z,77848.78
2018-10-02T09:49:52.728Z,77851.78
2018-10-02T09:52:21.029Z,77836.77
2018-10-02T09:54:50.350Z,77795.73
2018-10-02T09:57:19.701Z,77769.70
2018-10-02T09:59:48.937Z,77737.66
2018-10-02T10:02:23.620Z,77732.66
2018-10-02T10:04:53.022Z,77732.66
2018-10-02T10:07:21.377Z,77731.66
2018-10-02T10:09:50.771Z,77684.61
2018-10-02T10:12:19.119Z,77675.59
2018-10-02T10:14:48.390Z,77661.58
2018-10-02T10:17:17.723Z,77654.58
2018-10-02T10:19:47.068Z,77637.56
2018-10-02T10:22:16.352Z,77637.56
2018-10-02T10:24:44.690Z,77639.56
2018-10-02T10:27:13.068Z,77653.58
2018-10-02T10:29:42.413Z,77671.59
2018-10-02T10:32:12.133Z,77680.61
2018-10-02T10:34:41.439Z,77690.61
2018-10-02T10:37:10.618Z,77695.63
2018-10-02T10:39:38.937Z,77699.63
2018-10-02T10:42:09.125Z,77689.61
2018-10-02T10:44:39.341Z,77681.61
2018-10-02T10:47:10.031Z,77662.58
2018-10-02T10:49:39.017Z,77641.56
2018-10-02T10:52:08.875Z,77613.53
2018-10-02T10:54:37.871Z,77588.51
2018-10-02T10:57:07.206Z,77575.49
2018-10-02T10:59:37.178Z,77569.48
2018-10-02T11:02:07.197Z,77549.47
2018-10-02T11:04:36.065Z,77555.47
2018-10-02T11:07:04.353Z,77573.49
2018-10-02T11:09:35.141Z,77576.50
2018-10-02T11:12:03.474Z,77610.53
2018-10-02T11:14:32.226Z,77612.53
2018-10-02T11:17:02.208Z,77609.53
2018-10-02T11:19:32.398Z,77610.53
2018-10-02T11:22:01.238Z,77613.53
2018-10-02T11:24:29.614Z,77621.55
2018-10-02T11:26:58.894Z,77613.53
2018-10-02T11:29:27.674Z,77643.56
2018-10-02T11:31:56.344Z,77655.58
2018-10-02T11:34:24.694Z,77659.58
2018-10-02T11:36:53.914Z,77651.58
2018-10-02T11:39:23.130Z,77669.59
2018-10-02T11:41:51.457Z,77695.63
2018-10-02T11:44:19.873Z,77701.63
2018-10-02T11:46:48.153Z,77709.63
2018-10-02T11:49:17.547Z,77702.63
2018-10-02T11:51:46.749Z,77685.61
2018-10-02T11:54:16.000Z,77679.60
2018-10-02T11:56:45.305Z,77684.61
2018-10-02T11:59:14.562Z,77673.59
2018-10-02T12:01:43.874Z,77660.58
2018-10-02T12:04:13.178Z,77655.58
2018-10-02T12:06:42.572Z,77673.59
2018-10-02T12:09:10.948Z,77662.58
2018-10-02T12:11:40.354Z,77668.59
2018-10-02T12:14:10.129Z,77651.58
2018-10-02T12:16:39.455Z,77653.58
2018-10-02T12:19:08.845Z,77642.56
2018-10-02T12:21:38.717Z,77625.55
2018-10-02T12:24:07.846Z,77621.55
2018-10-02T12:26:38.761Z,77608.53
2018-10-02T12:29:08.422Z,77611.53
2018-10-02T12:31:37.190Z,77606.53
2018-10-02T12:34:06.791Z,77599.52
2018-10-02T12:36:35.246Z,77597.52
2018-10-02T12:39:05.728Z,77595.52
2018-10-02T12:41:34.077Z,77591.52
2018-10-02T12:44:03.160Z,77585.51
2018-10-02T12:46:32.398Z,77572.49
2018-10-02T12:49:01.208Z,77574.49
2018-10-02T12:51:29.533Z,77581.50
2018-10-02T12:53:57.882Z,77621.55
2018-10-02T12:56:26.228Z,77627.55
2018-10-02T12:58:54.594Z,77624.55
2018-10-02T13:01:22.945Z,77624.55
2018-10-02T13:03:51.278Z,77623.55
2018-10-02T13:06:19.625Z,77598.52
2018-10-02T13:08:48.945Z,77582.50
2018-10-02T13:11:17.297Z,77584.50
2018-10-02T13:13:45.662Z,77609.53
2018-10-02T13:16:14.010Z,77614.53
2018-10-02T13:18:42.356Z,77616.54
2018-10-02T13:21:10.694Z,77615.53
2018-10-02T13:23:39.038Z,77615.53
2018-10-02T13:26:08.345Z,77617.54
2018-10-02T13:28:37.337Z,77634.55
2018-10-02T13:31:05.694Z,77635.55
2018-10-02T13:33:34.453Z,77639.56
2018-10-02T13:36:03.757Z,77655.58
2018-10-02T13:38:33.253Z,77652.58
2018-10-02T13:41:02.271Z,77648.57
2018-10-02T13:43:31.261Z,77646.56
2018-10-02T13:45:59.601Z,77651.58
2018-10-02T13:48:27.937Z,77707.63
2018-10-02T13:50:56.282Z,77704.63
2018-10-02T13:53:24.626Z,77715.64
2018-10-02T13:55:53.002Z,77735.66
2018-10-02T13:58:21.331Z,77749.67
2018-10-02T14:00:49.673Z,77751.67
2018-10-02T14:03:18.015Z,77759.69
2018-10-02T14:05:46.349Z,77776.70
2018-10-02T14:08:14.715Z,77788.72
2018-10-02T14:10:43.078Z,77797.73
2018-10-02T14:13:12.281Z,77806.73
2018-10-02T14:15:40.658Z,77810.74
2018-10-02T14:18:09.050Z,77815.75
2018-10-02T14:20:38.153Z,77820.75
2018-10-02T14:23:07.625Z,77819.75
2018-10-02T14:25:37.409Z,77826.76
2018-10-02T14:28:05.815Z,77841.77
2018-10-02T14:30:34.827Z,77834.77
2018-10-02T14:33:03.886Z,77848.78
2018-10-02T14:35:32.919Z,77841.77
2018-10-02T14:38:02.874Z,77836.77
2018-10-02T14:40:32.217Z,77847.78
2018-10-02T14:43:00.824Z,77844.78
2018-10-02T14:45:29.597Z,77853.79
2018-10-02T14:47:57.926Z,77856.79
2018-10-02T14:50:26.298Z,77864.80
2018-10-02T14:52:54.640Z,77853.79
2018-10-02T14:55:22.973Z,77839.77
2018-10-02T14:57:51.349Z,77857.80
2018-10-02T15:00:19.685Z,77848.78
2018-10-02T15:02:48.046Z,77841.77
2018-10-02T15:05:16.382Z,77851.78
2018-10-02T15:07:44.717Z,77850.78
2018-10-02T15:10:14.096Z,77846.78
2018-10-02T15:12:42.450Z,77847.78
2018-10-02T15:15:10.793Z,77841.77
2018-10-02T15:17:39.134Z,77856.79
2018-10-02T15:20:08.545Z,77848.78
2018-10-02T15:22:36.888Z,77857.80
2018-10-02T15:25:06.383Z,77841.77
2018-10-02T15:27:34.721Z,77855.79
2018-10-02T15:30:03.094Z,77862.80
2018-10-02T15:32:33.134Z,77848.78
2018-10-02T15:35:03.214Z,77845.78
2018-10-02T15:37:32.953Z,77837.77
2018-10-02T15:40:02.190Z,77839.77
2018-10-02T15:42:30.556Z,77839.77
2018-10-02T15:44:59.677Z,77832.77
2018-10-02T15:47:28.009Z,77842.78
2018-10-02T15:49:56.358Z,77840.77
2018-10-02T15:52:25.727Z,77838.77
2018-10-02T15:54:55.073Z,77825.76
2018-10-02T15:57:24.409Z,77826.76
2018-10-02T15:59:53.743Z,77834.77
2018-10-02T16:02:22.113Z,77835.77
2018-10-02T16:04:50.443Z,77835.77
2018-10-02T16:07:19.645Z,77827.77
2018-10-02T16:09:49.234Z,77814.75
2018-10-02T16:12:17.595Z,77820.75
2018-10-02T16:14:46.941Z,77818.75
2018-10-02T16:17:16.199Z,77820.75
2018-10-02T16:19:45.401Z,77806.73
2018-10-02T16:22:14.808Z,77813.75
2018-10-02T16:24:43.189Z,77801.73
2018-10-02T16:27:12.625Z,77809.74
2018-10-02T16:29:41.840Z,77809.74
2018-10-02T16:32:11.173Z,77811.74
2018-10-02T16:34:49.284Z,77812.74
2018-10-02T16:37:09.686Z,77805.73
2018-10-02T16:39:39.052Z,77808.73
2018-10-02T16:42:09.269Z,77811.74
2018-10-02T16:44:40.082Z,77817.75
2018-10-02T16:47:09.396Z,77811.74
2018-10-02T16:49:40.066Z,77818.75
2018-10-02T16:52:09.445Z,77803.73
2018-10-02T16:54:40.087Z,77799.73
2018-10-02T16:57:09.461Z,77806.73
2018-10-02T16:59:38.413Z,77805.73
2018-10-02T17:02:06.822Z,77807.73
2018-10-02T17:04:36.875Z,77803.73
2018-10-02T17:07:05.221Z,77802.73
2018-10-02T17:09:34.560Z,77807.73
2018-10-02T17:12:03.785Z,77801.73
2018-10-02T17:14:33.961Z,77810.74
2018-10-02T17:17:04.834Z,77791.72
2018-10-02T17:19:34.304Z,77798.73
2018-10-02T17:22:03.881Z,77792.72
2018-10-02T17:24:33.122Z,77787.72
2018-10-02T17:27:03.448Z,77781.71
2018-10-02T17:29:33.666Z,77779.71
2018-10-02T17:32:02.484Z,77775.70
2018-10-02T17:34:33.148Z,77771.70
2018-10-02T17:37:03.633Z,77762.69
2018-10-02T17:39:32.552Z,77763.69
2018-10-02T17:42:02.512Z,77755.68
2018-10-02T17:44:32.938Z,77751.67
2018-10-02T17:47:02.605Z,77739.66
2018-10-02T17:49:31.961Z,77753.68
2018-10-02T17:52:02.526Z,77732.66
2018-10-02T17:54:32.604Z,77734.66
2018-10-02T17:57:02.124Z,77729.66
2018-10-02T17:59:30.475Z,77729.66
2018-10-02T18:01:59.965Z,77731.66
2018-10-02T18:04:29.198Z,77731.66
2018-10-02T18:06:57.797Z,77735.66
2018-10-02T18:09:27.044Z,77737.66
2018-10-02T18:11:55.392Z,77740.67
2018-10-02T18:14:23.733Z,77738.66
2018-10-02T18:16:52.072Z,77739.66
2018-10-02T18:19:20.412Z,77739.66
2018-10-02T18:21:48.840Z,77744.67
2018-10-02T18:24:17.225Z,77753.68
2018-10-02T18:26:45.600Z,77763.69
2018-10-02T18:29:13.957Z,77753.68
2018-10-02T18:31:42.305Z,77755.68
2018-10-02T18:34:10.655Z,77757.69
2018-10-02T18:36:40.017Z,77743.67
2018-10-02T18:39:09.497Z,77746.67
2018-10-02T18:41:38.991Z,77745.67
2018-10-02T18:44:08.842Z,77749.67
2018-10-02T18:46:39.037Z,77757.69
2018-10-02T18:49:08.474Z,77741.67
2018-10-02T18:51:38.772Z,77740.67
2018-10-02T18:54:07.805Z,77733.66
2018-10-02T18:56:37.321Z,77734.66
2018-10-02T18:59:06.501Z,77721.64
2018-10-02T19:01:34.853Z,77722.65
2018-10-02T19:04:03.465Z,77722.65
2018-10-02T19:06:32.061Z,77724.65
2018-10-02T19:09:07.553Z,77723.65
2018-10-02T19:11:42.150Z,77723.65
2018-10-02T19:14:11.462Z,77715.64
2018-10-02T19:16:39.800Z,77721.64
2018-10-02T19:19:13.301Z,77732.66
2018-10-02T19:21:42.553Z,77718.64
2018-10-02T19:24:10.989Z,77715.64
2018-10-02T19:26:40.225Z,77711.64
2018-10-02T19:29:10.853Z,77699.63
2018-10-02T19:31:44.585Z,77695.63
2018-10-02T19:34:13.993Z,77691.62
2018-10-02T19:36:42.885Z,77680.61
2018-10-02T19:39:18.162Z,77692.62
2018-10-02T19:41:46.897Z,77676.60
2018-10-02T19:44:16.110Z,77686.61
2018-10-02T19:46:49.125Z,77679.60
2018-10-02T19:49:19.609Z,77676.60
2018-10-02T19:52:21.165Z,77671.59
2018-10-02T19:54:49.521Z,77653.58
2018-10-02T19:57:18.826Z,77649.57
2018-10-02T19:59:47.205Z,77655.58
2018-10-02T20:02:16.083Z,77645.56
2018-10-02T20:04:44.422Z,77640.56
2018-10-02T20:07:12.762Z,77643.56
2018-10-02T20:09:41.129Z,77651.58
2018-10-02T20:12:09.510Z,77651.58
2018-10-02T20:14:38.777Z,77649.57
2018-10-02T20:17:08.709Z,77647.56
2018-10-02T20:19:38.027Z,77655.58
2018-10-02T20:22:08.831Z,77655.58
2018-10-02T20:24:37.755Z,77645.56
2018-10-02T20:27:08.324Z,77642.56
2018-10-02T20:29:36.690Z,77643.56
2018-10-02T20:32:06.961Z,77652.58
2018-10-02T20:34:36.818Z,77641.56
2018-10-02T20:37:05.198Z,77645.56
2018-10-02T20:39:36.520Z,77652.58
2018-10-02T20:42:04.906Z,77641.56
2018-10-02T20:44:33.250Z,77653.58
2018-10-02T20:47:01.647Z,77652.58
2018-10-02T20:49:30.074Z,77651.58
2018-10-02T20:51:58.361Z,77659.58
2018-10-02T20:54:26.750Z,77655.58
2018-10-02T20:56:55.076Z,77653.58
2018-10-02T20:59:23.494Z,77653.58
2018-10-02T21:01:51.824Z,77648.57
2018-10-02T21:04:21.216Z,77659.58
2018-10-02T21:06:49.557Z,77659.58
2018-10-02T21:09:17.933Z,77667.59
2018-10-02T21:11:46.286Z,77673.59
2018-10-02T21:14:14.677Z,77659.58
2018-10-02T21:16:42.992Z,77657.58
2018-10-02T21:19:11.365Z,77661.58
2018-10-02T21:21:39.748Z,77638.56
2018-10-02T21:24:08.775Z,77645.56
2018-10-02T21:26:37.861Z,77635.55
2018-10-02T21:29:07.749Z,77640.56
2018-10-02T21:31:38.101Z,77643.56
2018-10-02T21:34:08.236Z,77635.55
2018-10-02T21:36:38.481Z,77634.55
2018-10-02T21:39:09.716Z,77628.55
2018-10-02T21:41:39.122Z,77624.55
2018-10-02T21:44:08.569Z,77622.55
2018-10-02T21:46:38.017Z,77612.53
2018-10-02T21:49:08.543Z,77608.53
2018-10-02T21:51:36.915Z,77611.53
2018-10-02T21:54:07.202Z,77617.54
2018-10-02T21:56:36.163Z,77623.55
2018-10-02T21:59:04.498Z,77608.53
2018-10-02T22:01:33.702Z,77605.53
2018-10-02T22:04:02.730Z,77615.53
2018-10-02T22:06:35.022Z,77601.52
2018-10-02T22:09:04.976Z,77612.53
2018-10-02T22:11:34.302Z,77605.53
2018-10-02T22:14:03.561Z,77594.52
2018-10-02T22:16:33.233Z,77588.51
2018-10-02T22:19:02.497Z,77602.52
2018-10-02T22:21:30.825Z,77598.52
2018-10-02T22:24:00.173Z,77594.52
2018-10-02T22:26:29.533Z,77585.51
2018-10-02T22:28:57.850Z,77590.52
2018-10-02T22:31:26.199Z,77597.52
2018-10-02T22:33:54.585Z,77604.52
2018-10-02T22:36:22.934Z,77599.52
2018-10-02T22:38:52.186Z,77593.52
2018-10-02T22:41:21.453Z,77594.52
2018-10-02T22:43:50.689Z,77591.52
2018-10-02T22:46:20.045Z,77602.52
2018-10-02T22:48:49.252Z,77595.52
2018-10-02T22:51:18.501Z,77595.52
2018-10-02T22:53:47.657Z,77589.52
2018-10-02T22:56:16.992Z,77592.52
2018-10-02T22:58:46.233Z,77594.52
2018-10-02T23:01:15.823Z,77593.52
2018-10-02T23:03:45.159Z,77569.48
2018-10-02T23:06:14.550Z,77568.48
2018-10-02T23:08:43.781Z,77567.48
2018-10-02T23:11:13.190Z,77555.47
2018-10-02T23:13:42.605Z,77560.48
2018-10-02T23:16:18.724Z,77558.48
2018-10-02T23:18:47.982Z,77560.48
2018-10-02T23:21:17.361Z,77551.47
2018-10-02T23:23:46.590Z,77551.47
2018-10-02T23:26:15.933Z,77547.47
2018-10-02T23:28:44.266Z,77554.47
2018-10-02T23:31:13.517Z,77543.46
2018-10-02T23:33:41.866Z,77551.47
2018-10-02T23:36:10.193Z,77551.47
2018-10-02T23:38:39.018Z,77554.47
2018-10-02T23:41:09.879Z,77550.47
2018-10-02T23:43:39.193Z,77549.47
2018-10-02T23:46:09.065Z,77551.47
2018-10-02T23:48:39.382Z,77561.48
2018-10-02T23:51:08.728Z,77571.48
2018-10-02T23:53:38.130Z,77565.48
2018-10-02T23:56:08.329Z,77573.49
2018-10-02T23:58:39.035Z,77563.48
